Time;durP1;ratioP1;P1;durP2;ratioP2;P2;SDS_P1;SDS_P2;PMS_P1;PMS_P2;Temp;Humidity;BMP_temperature;BMP_pressure;BME280_temperature;BME280_humidity;BME280_pressure;Samples;Min_cycle;Max_cycle;Signal;HPM_P1;HPM_P2
2023/10/04 00:00:52;;;;;;;13.45;6.67;;;;;;;;;;1766531;78;27829;-57
2023/10/04 00:03:22;;;;;;;16.67;6.15;;;;;;;;;;1771902;79;25447;-57
2023/10/04 00:05:49;;;;;;;11.40;5.92;;;;;;;;;;1781709;79;25920;-57
2023/10/04 00:08:15;;;;;;;11.28;6.05;;;;;;;;;;1785257;79;25834;-58
2023/10/04 00:10:41;;;;;;;12.37;6.10;;;;;;;;;;1783242;78;25392;-58
2023/10/04 00:13:07;;;;;;;9.70;5.22;;;;;;;;;;1783230;78;27333;-58
2023/10/04 00:15:33;;;;;;;13.10;5.65;;;;;;;;;;1775718;79;25978;-58
2023/10/04 00:17:59;;;;;;;12.53;6.12;;;;;;;;;;1773437;79;25800;-57
2023/10/04 00:20:31;;;;;;;10.85;5.15;;;;;;;;;;1765339;79;25949;-57
2023/10/04 00:22:54;;;;;;;10.80;5.97;;;;;;;;;;1774940;79;32348;-58
2023/10/04 00:25:23;;;;;;;12.50;5.58;;;;;;;;;;1768641;79;27269;-58
2023/10/04 00:27:58;;;;;;;11.05;5.90;;;;;;;;;;1771215;79;25394;-54
2023/10/04 00:30:29;;;;;;;12.80;5.58;;;;;;;;;;1768401;79;25818;-57
2023/10/04 00:32:59;;;;;;;12.43;5.50;;;;;;;;;;1767815;79;25528;-58
2023/10/04 00:35:29;;;;;;;18.15;6.65;;;;;;;;;;1786891;79;25553;-58
2023/10/04 00:38:00;;;;;;;10.98;5.72;;;;;;;;;;1789059;78;27963;-57
2023/10/04 00:40:31;;;;;;;8.60;5.10;;;;;;;;;;1784928;79;25568;-58
2023/10/04 00:43:03;;;;;;;10.08;5.70;;;;;;;;;;1763604;79;25446;-57
2023/10/04 00:45:32;;;;;;;11.25;5.97;;;;;;;;;;1779170;78;25914;-57
2023/10/04 00:48:02;;;;;;;12.53;6.33;;;;;;;;;;1767222;77;25766;-57
2023/10/04 00:50:31;;;;;;;12.63;6.25;;;;;;;;;;1773396;79;28091;-58
2023/10/04 00:53:16;;;;;;;10.25;5.62;;;;;;;;;;1788176;79;25702;-57
2023/10/04 00:55:46;;;;;;;11.85;6.25;;;;;;;;;;1779562;78;25804;-58
2023/10/04 00:58:19;;;;;;;11.08;5.53;;;;;;;;;;1768374;79;25614;-58
2023/10/04 01:00:49;;;;;;;12.25;5.72;;;;;;;;;;1785337;79;25799;-57
2023/10/04 01:03:19;;;;;;;8.93;5.25;;;;;;;;;;1776488;79;27889;-58
2023/10/04 01:05:47;;;;;;;11.35;5.97;;;;;;;;;;1780866;77;25397;-57
2023/10/04 01:08:20;;;;;;;9.98;5.15;;;;;;;;;;1783613;79;25843;-54
2023/10/04 01:10:50;;;;;;;13.55;4.90;;;;;;;;;;1786022;77;25682;-58
2023/10/04 01:13:22;;;;;;;9.45;5.10;;;;;;;;;;1773742;79;25850;-57
2023/10/04 01:15:49;;;;;;;9.90;4.75;;;;;;;;;;1762171;78;27240;-57
2023/10/04 01:18:16;;;;;;;9.70;4.60;;;;;;;;;;1782599;79;25572;-56
2023/10/04 01:20:46;;;;;;;7.25;4.50;;;;;;;;;;1779531;78;25793;-56
2023/10/04 01:23:12;;;;;;;8.53;4.45;;;;;;;;;;1792149;78;25625;-57
2023/10/04 01:25:41;;;;;;;7.17;3.90;;;;;;;;;;1786749;79;25422;-57
2023/10/04 01:28:12;;;;;;;8.60;3.98;;;;;;;;;;1771615;79;27524;-57
2023/10/04 01:30:41;;;;;;;7.10;3.80;;;;;;;;;;1772017;78;25436;-58
2023/10/04 01:33:12;;;;;;;7.15;3.35;;;;;;;;;;1779226;78;25740;-57
2023/10/04 01:35:40;;;;;;;4.78;2.45;;;;;;;;;;1766961;79;25911;-56
2023/10/04 01:38:10;;;;;;;7.42;2.80;;;;;;;;;;1769090;78;25605;-57
2023/10/04 01:40:39;;;;;;;3.92;2.22;;;;;;;;;;1772685;79;27361;-56
2023/10/04 01:43:14;;;;;;;4.40;2.37;;;;;;;;;;1776986;79;25707;-56
2023/10/04 01:45:34;;;;;;;5.67;2.00;;;;;;;;;;1778288;78;25475;-56
2023/10/04 01:48:00;;;;;;;2.72;1.70;;;;;;;;;;1781094;79;25787;-56
2023/10/04 01:50:27;;;;;;;2.37;1.47;;;;;;;;;;1784620;79;25491;-56
2023/10/04 01:52:54;;;;;;;3.02;1.30;;;;;;;;;;1772055;77;28743;-56
2023/10/04 01:55:21;;;;;;;4.53;1.32;;;;;;;;;;1766470;78;25599;-56
2023/10/04 01:57:53;;;;;;;4.15;1.52;;;;;;;;;;1778493;79;25846;-53
2023/10/04 02:00:22;;;;;;;4.95;1.45;;;;;;;;;;1783098;79;25682;-53
2023/10/04 02:02:49;;;;;;;3.10;1.25;;;;;;;;;;1774622;79;25839;-57
2023/10/04 02:05:28;;;;;;;4.12;1.37;;;;;;;;;;1774812;78;27730;-57
2023/10/04 02:07:46;;;;;;;1.30;1.02;;;;;;;;;;1772766;79;25615;-53
2023/10/04 02:10:17;;;;;;;2.72;1.40;;;;;;;;;;1773516;79;25594;-53
2023/10/04 02:12:42;;;;;;;2.27;1.15;;;;;;;;;;1772441;78;25743;-55
2023/10/04 02:15:14;;;;;;;2.65;1.05;;;;;;;;;;1791233;79;25443;-57
2023/10/04 02:17:38;;;;;;;3.83;1.47;;;;;;;;;;1769323;78;27962;-57
2023/10/04 02:20:21;;;;;;;6.10;1.65;;;;;;;;;;1772179;79;25568;-57
2023/10/04 02:22:44;;;;;;;1.77;1.15;;;;;;;;;;1771729;79;25883;-55
2023/10/04 02:25:13;;;;;;;3.98;1.35;;;;;;;;;;1784894;78;25812;-54
2023/10/04 02:27:38;;;;;;;4.87;1.20;;;;;;;;;;1778824;78;25468;-55
2023/10/04 02:30:15;;;;;;;5.20;2.12;;;;;;;;;;1776485;79;27873;-56
2023/10/04 02:32:43;;;;;;;3.87;1.70;;;;;;;;;;1783655;79;25687;-57
2023/10/04 02:35:21;;;;;;;2.58;1.15;;;;;;;;;;1780975;79;25528;-56
2023/10/04 02:37:42;;;;;;;3.70;1.37;;;;;;;;;;1765488;79;25491;-57
2023/10/04 02:40:15;;;;;;;;;;;;;;;;;;1799735;78;25463;-57
2023/10/04 02:42:47;;;;;;;6.05;1.47;;;;;;;;;;1774813;79;27555;-57
2023/10/04 02:45:18;;;;;;;3.67;1.42;;;;;;;;;;1773402;79;25656;-54
2023/10/04 02:47:42;;;;;;;4.10;1.27;;;;;;;;;;1786705;79;25865;-57
2023/10/04 02:50:11;;;;;;;5.03;1.20;;;;;;;;;;1776326;79;25557;-58
2023/10/04 02:52:37;;;;;;;2.62;1.45;;;;;;;;;;1770074;78;25626;-58
2023/10/04 02:55:09;;;;;;;4.03;1.30;;;;;;;;;;1781450;79;27272;-55
2023/10/04 02:57:35;;;;;;;7.05;1.87;;;;;;;;;;1792615;78;25912;-58
2023/10/04 03:00:17;;;;;;;4.50;1.50;;;;;;;;;;1765336;79;25602;-57
2023/10/04 03:02:40;;;;;;;4.80;1.50;;;;;;;;;;1772490;78;26341;-56
2023/10/04 03:05:11;;;;;;;3.33;1.65;;;;;;;;;;1770757;79;25610;-56
2023/10/04 03:07:39;;;;;;;5.47;1.60;;;;;;;;;;1769557;78;27176;-55
2023/10/04 03:10:13;;;;;;;4.10;2.02;;;;;;;;;;1770196;79;25770;-56
2023/10/04 03:12:41;;;;;;;3.52;1.90;;;;;;;;;;1763874;79;25882;-54
2023/10/04 03:15:12;;;;;;;3.90;1.80;;;;;;;;;;1770202;78;25668;-56
2023/10/04 03:17:37;;;;;;;3.40;2.15;;;;;;;;;;1766652;79;25388;-57
2023/10/04 03:20:19;;;;;;;3.95;1.82;;;;;;;;;;1765122;78;27234;-56
2023/10/04 03:22:42;;;;;;;3.08;1.72;;;;;;;;;;1785567;79;25633;-54
2023/10/04 03:25:06;;;;;;;6.22;2.02;;;;;;;;;;1762582;79;26004;-55
2023/10/04 03:27:34;;;;;;;4.28;1.70;;;;;;;;;;1780028;79;26440;-56
2023/10/04 03:30:06;;;;;;;4.30;1.90;;;;;;;;;;1775468;79;25738;-56
2023/10/04 03:32:35;;;;;;;3.95;1.77;;;;;;;;;;1791650;78;28034;-56
2023/10/04 03:35:06;;;;;;;3.77;1.60;;;;;;;;;;1777635;78;25530;-57
2023/10/04 03:37:39;;;;;;;2.37;1.50;;;;;;;;;;1768577;79;25580;-54
2023/10/04 03:40:14;;;;;;;3.12;1.67;;;;;;;;;;1777692;79;26386;-55
2023/10/04 03:42:34;;;;;;;4.58;1.70;;;;;;;;;;1771664;79;25388;-58
2023/10/04 03:45:01;;;;;;;2.85;1.30;;;;;;;;;;1780029;79;27766;-57
2023/10/04 03:47:27;;;;;;;5.03;1.70;;;;;;;;;;1782224;78;25814;-57
2023/10/04 03:49:53;;;;;;;5.17;1.70;;;;;;;;;;1765408;79;25763;-56
2023/10/04 03:52:23;;;;;;;6.30;2.02;;;;;;;;;;1770791;79;26442;-57
2023/10/04 03:54:49;;;;;;;6.58;1.90;;;;;;;;;;1784651;78;25770;-57
2023/10/04 03:57:22;;;;;;;5.83;2.07;;;;;;;;;;1780329;79;27226;-56
2023/10/04 03:59:50;;;;;;;6.90;2.17;;;;;;;;;;1772351;79;25723;-58
2023/10/04 04:02:19;;;;;;;4.72;2.20;;;;;;;;;;1781162;78;25871;-58
2023/10/04 04:04:47;;;;;;;;;;;;;;;;;;1785704;79;25667;-57
2023/10/04 04:07:13;;;;;;;9.15;2.72;;;;;;;;;;1776020;79;25870;-57
2023/10/04 04:09:42;;;;;;;5.20;2.10;;;;;;;;;;1772694;79;27694;-59
2023/10/04 04:12:08;;;;;;;5.85;2.45;;;;;;;;;;1773188;78;25476;-57
2023/10/04 04:14:39;;;;;;;6.00;2.45;;;;;;;;;;1785084;78;25441;-57
2023/10/04 04:17:05;;;;;;;6.30;2.30;;;;;;;;;;1792558;79;25990;-58
2023/10/04 04:19:31;;;;;;;3.60;2.20;;;;;;;;;;1773083;79;25513;-59
2023/10/04 04:21:57;;;;;;;6.00;2.92;;;;;;;;;;1784085;79;27896;-58
2023/10/04 04:24:25;;;;;;;7.90;2.75;;;;;;;;;;1780902;78;33227;-58
2023/10/04 04:26:55;;;;;;;6.03;2.55;;;;;;;;;;1787478;79;25849;-56
2023/10/04 04:29:19;;;;;;;5.35;2.90;;;;;;;;;;1776792;78;25486;-57
2023/10/04 04:31:45;;;;;;;5.55;2.60;;;;;;;;;;1765394;79;25469;-56
2023/10/04 04:34:13;;;;;;;6.45;2.12;;;;;;;;;;1776693;78;27778;-58
2023/10/04 04:36:42;;;;;;;3.83;2.00;;;;;;;;;;1762731;79;25681;-53
2023/10/04 04:39:13;;;;;;;5.62;2.62;;;;;;;;;;1780908;78;26967;-54
2023/10/04 04:41:36;;;;;;;11.05;2.45;;;;;;;;;;1785296;78;26373;-58
2023/10/04 04:44:19;;;;;;;5.50;2.17;;;;;;;;;;1767380;79;25484;-54
2023/10/04 04:46:40;;;;;;;9.08;2.60;;;;;;;;;;1776936;79;27883;-54
2023/10/04 04:49:06;;;;;;;5.47;2.15;;;;;;;;;;1771941;79;33177;-57
2023/10/04 04:51:34;;;;;;;8.18;2.92;;;;;;;;;;1764699;78;25521;-54
2023/10/04 04:54:00;;;;;;;4.75;2.60;;;;;;;;;;1780295;79;25629;-60
2023/10/04 04:56:26;;;;;;;7.12;2.52;;;;;;;;;;1778488;78;25875;-66
2023/10/04 04:58:56;;;;;;;3.58;1.95;;;;;;;;;;1779789;79;27700;-61
2023/10/04 05:01:23;;;;;;;5.10;2.27;;;;;;;;;;1777666;79;25783;-62
2023/10/04 05:03:50;;;;;;;9.63;3.08;;;;;;;;;;1755890;79;26431;-60
2023/10/04 05:06:25;;;;;;;8.70;2.37;;;;;;;;;;1768933;79;25784;-61
2023/10/04 05:08:50;;;;;;;7.17;2.20;;;;;;;;;;1770437;79;25401;-60
2023/10/04 05:11:17;;;;;;;6.00;2.30;;;;;;;;;;1779351;78;27274;-62
2023/10/04 05:13:44;;;;;;;7.37;2.60;;;;;;;;;;1772425;78;25669;-62
2023/10/04 05:16:12;;;;;;;7.78;2.37;;;;;;;;;;1771141;78;25366;-62
2023/10/04 05:18:39;;;;;;;9.45;2.50;;;;;;;;;;1771234;79;27037;-62
2023/10/04 05:21:05;;;;;;;10.48;2.80;;;;;;;;;;1762841;79;25500;-62
2023/10/04 05:23:32;;;;;;;9.83;2.35;;;;;;;;;;1774184;79;27666;-63
2023/10/04 05:25:59;;;;;;;6.75;2.25;;;;;;;;;;1778779;78;25927;-62
2023/10/04 05:28:27;;;;;;;8.38;2.20;;;;;;;;;;1787436;78;25818;-62
2023/10/04 05:30:54;;;;;;;5.85;2.83;;;;;;;;;;1790073;78;26282;-62
2023/10/04 05:33:21;;;;;;;4.83;3.05;;;;;;;;;;1770538;79;25638;-62
2023/10/04 05:35:52;;;;;;;7.92;3.27;;;;;;;;;;1788011;78;27402;-62
2023/10/04 05:38:17;;;;;;;5.28;2.30;;;;;;;;;;1772983;77;25498;-62
2023/10/04 05:40:45;;;;;;;5.72;2.47;;;;;;;;;;1784620;79;29896;-62
2023/10/04 05:43:12;;;;;;;6.90;2.50;;;;;;;;;;1787693;78;26298;-62
2023/10/04 05:45:42;;;;;;;9.15;2.22;;;;;;;;;;1767370;79;25515;-62
2023/10/04 05:48:07;;;;;;;7.22;2.40;;;;;;;;;;1781931;79;27428;-63
2023/10/04 05:50:34;;;;;;;6.47;2.40;;;;;;;;;;1782912;78;25802;-62
2023/10/04 05:53:08;;;;;;;9.80;2.17;;;;;;;;;;1780898;79;25888;-62
2023/10/04 06:09:31;;;;;;;8.80;2.02;;;;;;;;;;1772505;76;26937;-60
2023/10/04 06:11:56;;;;;;;9.88;2.25;;;;;;;;;;1722535;82;25885;-60
2023/10/04 06:14:22;;;;;;;4.08;2.25;;;;;;;;;;1744268;80;27334;-60
2023/10/04 06:16:50;;;;;;;8.48;1.95;;;;;;;;;;1730213;81;33719;-60
2023/10/04 06:19:19;;;;;;;4.33;2.05;;;;;;;;;;1735862;80;25811;-61
2023/10/04 06:21:48;;;;;;;6.28;2.22;;;;;;;;;;1725690;81;25766;-60
2023/10/04 06:24:12;;;;;;;4.20;2.30;;;;;;;;;;1713685;82;25621;-61
2023/10/04 06:26:38;;;;;;;10.75;2.33;;;;;;;;;;1711523;82;27195;-60
2023/10/04 06:29:04;;;;;;;7.72;2.22;;;;;;;;;;1665283;83;33006;-61
2023/10/04 06:31:30;;;;;;;3.67;2.00;;;;;;;;;;1663531;85;25465;-61
2023/10/04 06:33:58;;;;;;;7.35;1.92;;;;;;;;;;1700226;82;25525;-60
2023/10/04 06:36:25;;;;;;;9.20;1.92;;;;;;;;;;1701486;83;25815;-60
2023/10/04 06:38:51;;;;;;;6.30;2.22;;;;;;;;;;1698914;83;27048;-60
2023/10/04 06:41:23;;;;;;;8.00;2.50;;;;;;;;;;1693623;83;25686;-61
2023/10/04 06:43:45;;;;;;;7.45;2.37;;;;;;;;;;1696406;83;26006;-61
2023/10/04 06:46:12;;;;;;;5.92;2.70;;;;;;;;;;1685935;82;26137;-60
2023/10/04 06:48:38;;;;;;;6.85;2.22;;;;;;;;;;1692612;83;25694;-61
2023/10/04 06:51:05;;;;;;;5.87;2.40;;;;;;;;;;1693357;82;27393;-61
2023/10/04 06:53:31;;;;;;;8.95;2.45;;;;;;;;;;1695173;83;25802;-61
2023/10/04 06:55:57;;;;;;;7.40;2.40;;;;;;;;;;1692028;83;25781;-60
2023/10/04 06:58:23;;;;;;;7.55;2.35;;;;;;;;;;1690830;82;25518;-58
2023/10/04 07:00:50;;;;;;;15.50;4.28;;;;;;;;;;1693574;83;25476;-61
2023/10/04 07:03:16;;;;;;;7.80;2.22;;;;;;;;;;1697413;83;27405;-60
2023/10/04 07:05:43;;;;;;;8.60;1.90;;;;;;;;;;1689257;82;25873;-61
2023/10/04 07:08:16;;;;;;;4.85;2.20;;;;;;;;;;1683479;82;25456;-61
2023/10/04 07:10:39;;;;;;;;;;;;;;;;;;1708153;83;26126;-61
2023/10/04 07:13:10;;;;;;;6.78;2.15;;;;;;;;;;1706310;83;25927;-62
2023/10/04 07:15:39;;;;;;;7.33;2.50;;;;;;;;;;1715421;82;28183;-62
2023/10/04 07:18:06;;;;;;;7.12;2.15;;;;;;;;;;1709421;82;25779;-61
2023/10/04 07:20:33;;;;;;;9.80;2.22;;;;;;;;;;1706700;83;25800;-61
2023/10/04 07:23:03;;;;;;;4.90;2.10;;;;;;;;;;1708250;83;26223;-62
2023/10/04 07:25:30;;;;;;;6.20;2.08;;;;;;;;;;1711295;82;25881;-61
2023/10/04 07:28:01;;;;;;;6.62;2.22;;;;;;;;;;1704218;82;27349;-61
2023/10/04 07:30:26;;;;;;;9.68;3.17;;;;;;;;;;1707385;83;25597;-60
2023/10/04 07:32:53;;;;;;;6.40;2.05;;;;;;;;;;1710349;82;25860;-61
2023/10/04 07:35:25;;;;;;;6.83;2.17;;;;;;;;;;1708466;82;25868;-60
2023/10/04 07:37:53;;;;;;;4.40;1.80;;;;;;;;;;1707563;83;25566;-59
2023/10/04 07:40:22;;;;;;;7.78;2.20;;;;;;;;;;1696440;83;27247;-61
2023/10/04 07:42:52;;;;;;;7.28;2.08;;;;;;;;;;1709894;81;25770;-60
2023/10/04 07:45:18;;;;;;;6.42;1.82;;;;;;;;;;1714775;82;25404;-60
2023/10/04 07:47:45;;;;;;;6.70;2.75;;;;;;;;;;1700952;82;25825;-63
2023/10/04 07:50:15;;;;;;;6.85;2.25;;;;;;;;;;1703540;82;25854;-61
2023/10/04 07:52:42;;;;;;;;;;;;;;;;;;1682504;83;27347;-61
2023/10/04 07:55:14;;;;;;;4.58;1.85;;;;;;;;;;1692894;83;25641;-61
2023/10/04 07:57:41;;;;;;;5.80;2.08;;;;;;;;;;1686394;83;25728;-61
2023/10/04 08:00:11;;;;;;;9.65;2.20;;;;;;;;;;1690423;82;26029;-63
2023/10/04 08:02:35;;;;;;;6.47;1.80;;;;;;;;;;1688390;83;25878;-62
2023/10/04 08:05:03;;;;;;;9.43;2.17;;;;;;;;;;1686132;83;27215;-63
2023/10/04 08:07:29;;;;;;;4.65;1.90;;;;;;;;;;1695916;83;25657;-62
2023/10/04 08:09:58;;;;;;;7.45;2.70;;;;;;;;;;1699874;82;26454;-60
2023/10/04 08:12:23;;;;;;;6.95;2.27;;;;;;;;;;1694998;82;25893;-58
2023/10/04 08:14:50;;;;;;;5.37;1.92;;;;;;;;;;1679784;84;25649;-59
2023/10/04 08:17:16;;;;;;;10.63;2.37;;;;;;;;;;1691080;82;28116;-57
2023/10/04 08:19:43;;;;;;;6.55;2.10;;;;;;;;;;1683169;82;25827;-59
2023/10/04 08:22:09;;;;;;;10.45;2.27;;;;;;;;;;1710337;80;25512;-63
2023/10/04 08:24:36;;;;;;;6.60;2.40;;;;;;;;;;1707395;82;25986;-64
2023/10/04 08:27:02;;;;;;;7.85;2.35;;;;;;;;;;1712607;82;25833;-68
2023/10/04 08:29:29;;;;;;;5.92;2.52;;;;;;;;;;1711581;82;27391;-68
2023/10/04 08:31:56;;;;;;;6.35;2.10;;;;;;;;;;1706116;83;25409;-66
2023/10/04 08:34:24;;;;;;;6.60;2.25;;;;;;;;;;1710312;82;25546;-66
2023/10/04 08:36:49;;;;;;;8.25;2.70;;;;;;;;;;1708359;81;25885;-67
2023/10/04 08:39:15;;;;;;;8.60;2.37;;;;;;;;;;1705880;83;25984;-67
2023/10/04 08:41:41;;;;;;;8.25;2.30;;;;;;;;;;1699540;82;27796;-67
2023/10/04 08:44:07;;;;;;;5.53;2.45;;;;;;;;;;1707378;82;25925;-67
2023/10/04 08:46:36;;;;;;;4.45;2.08;;;;;;;;;;1702695;82;25513;-68
2023/10/04 08:49:03;;;;;;;10.38;2.65;;;;;;;;;;1707854;81;25921;-68
2023/10/04 08:51:35;;;;;;;6.70;2.17;;;;;;;;;;1707636;83;25479;-66
2023/10/04 08:54:12;;;;;;;5.95;2.37;;;;;;;;;;1706080;82;27747;-66
2023/10/04 08:56:51;;;;;;;7.80;2.40;;;;;;;;;;1703392;82;25403;-66
2023/10/04 08:59:17;;;;;;;7.42;2.10;;;;;;;;;;1707594;83;25465;-66
2023/10/04 09:01:46;;;;;;;11.25;2.98;;;;;;;;;;1714256;82;26156;-66
2023/10/04 09:04:13;;;;;;;10.23;2.83;;;;;;;;;;1706340;83;25888;-66
2023/10/04 09:06:42;;;;;;;12.03;2.55;;;;;;;;;;1705478;82;27748;-65
2023/10/04 09:09:11;;;;;;;6.78;1.90;;;;;;;;;;1709638;80;25443;-65
2023/10/04 09:11:37;;;;;;;7.08;3.12;;;;;;;;;;1707692;81;25869;-67
2023/10/04 09:14:04;;;;;;;6.60;2.30;;;;;;;;;;1713694;82;25675;-66
2023/10/04 09:16:31;;;;;;;7.35;2.12;;;;;;;;;;1706483;81;25478;-66
2023/10/04 09:19:17;;;;;;;9.10;2.65;;;;;;;;;;1705285;83;27685;-65
2023/10/04 09:21:42;;;;;;;7.35;2.67;;;;;;;;;;1705707;81;25788;-65
2023/10/04 09:24:13;;;;;;;9.63;2.50;;;;;;;;;;1706897;82;25769;-67
2023/10/04 09:26:54;;;;;;;3.98;2.20;;;;;;;;;;1704334;82;26031;-66
2023/10/04 09:29:31;;;;;;;5.80;2.72;;;;;;;;;;1704563;83;25513;-67
2023/10/04 09:31:57;;;;;;;6.05;2.80;;;;;;;;;;1707270;82;27397;-68
2023/10/04 09:34:23;;;;;;;6.80;3.12;;;;;;;;;;1708992;83;25508;-66
2023/10/04 09:36:52;;;;;;;7.72;2.72;;;;;;;;;;1703072;82;25415;-67
2023/10/04 09:39:23;;;;;;;6.00;2.70;;;;;;;;;;1704388;83;25972;-68
2023/10/04 09:41:48;;;;;;;8.53;2.45;;;;;;;;;;1703615;82;25529;-69
2023/10/04 09:44:26;;;;;;;7.80;2.62;;;;;;;;;;1703738;83;28565;-69
2023/10/04 09:46:59;;;;;;;6.75;2.62;;;;;;;;;;1700561;83;25552;-69
2023/10/04 09:49:35;;;;;;;6.87;2.27;;;;;;;;;;1706177;83;25884;-68
2023/10/04 09:52:16;;;;;;;9.93;3.30;;;;;;;;;;1704933;83;26490;-68
2023/10/04 09:54:38;;;;;;;7.00;2.95;;;;;;;;;;1704646;83;25804;-67
2023/10/04 09:57:07;;;;;;;6.75;2.50;;;;;;;;;;1711154;82;27335;-67
2023/10/04 09:59:37;;;;;;;8.35;2.50;;;;;;;;;;1672590;84;25771;-67
2023/10/04 10:02:06;;;;;;;6.00;2.60;;;;;;;;;;1693251;82;25837;-68
2023/10/04 10:04:39;;;;;;;11.07;2.60;;;;;;;;;;1697999;83;25981;-69
2023/10/04 10:07:16;;;;;;;9.90;2.47;;;;;;;;;;1695723;83;25789;-66
2023/10/04 10:10:10;;;;;;;8.60;3.00;;;;;;;;;;1689318;83;27234;-65
2023/10/04 10:12:32;;;;;;;7.97;2.55;;;;;;;;;;1711217;82;26304;-65
2023/10/04 10:15:01;;;;;;;7.00;2.87;;;;;;;;;;1717402;82;25516;-64
2023/10/04 10:17:30;;;;;;;6.55;2.60;;;;;;;;;;1717392;81;25875;-66
2023/10/04 10:19:59;;;;;;;8.73;2.40;;;;;;;;;;1705779;82;28220;-66
2023/10/04 10:22:25;;;;;;;8.60;2.55;;;;;;;;;;1703483;81;28048;-66
2023/10/04 10:25:03;;;;;;;8.78;2.45;;;;;;;;;;1704948;82;25487;-66
2023/10/04 10:27:29;;;;;;;10.20;2.87;;;;;;;;;;1705608;82;25790;-66
2023/10/04 10:30:02;;;;;;;7.62;2.45;;;;;;;;;;1710198;83;25392;-66
2023/10/04 10:32:29;;;;;;;5.30;2.30;;;;;;;;;;1706024;82;25884;-67
2023/10/04 10:35:08;;;;;;;8.20;2.30;;;;;;;;;;1708522;82;27771;-65
2023/10/04 10:37:41;;;;;;;5.10;2.52;;;;;;;;;;1701692;82;34698;-67
2023/10/04 10:40:14;;;;;;;7.00;2.45;;;;;;;;;;1704703;81;25470;-66
2023/10/04 10:43:05;;;;;;;8.53;2.27;;;;;;;;;;1687392;83;26507;-66
2023/10/04 10:45:32;;;;;;;7.20;2.50;;;;;;;;;;1702052;82;25607;-68
2023/10/04 10:48:00;;;;;;;6.22;2.60;;;;;;;;;;1712815;81;25909;-68
2023/10/04 10:50:37;;;;;;;9.38;3.22;;;;;;;;;;1704294;83;25810;-68
2023/10/04 10:53:05;;;;;;;7.83;2.10;;;;;;;;;;1707137;82;25842;-68
2023/10/04 10:55:33;;;;;;;8.65;2.90;;;;;;;;;;1709606;83;25884;-68
2023/10/04 10:57:59;;;;;;;8.45;2.65;;;;;;;;;;1677605;83;25476;-69
2023/10/04 11:00:32;;;;;;;11.85;2.75;;;;;;;;;;1682438;82;27557;-69
2023/10/04 11:02:55;;;;;;;9.13;2.92;;;;;;;;;;1693912;82;25829;-69
2023/10/04 11:05:22;;;;;;;8.28;2.95;;;;;;;;;;1690326;81;25450;-70
2023/10/04 11:07:49;;;;;;;10.95;3.10;;;;;;;;;;1705999;82;25802;-67
2023/10/04 11:10:16;;;;;;;8.75;2.87;;;;;;;;;;1714080;81;25835;-70
2023/10/04 11:12:44;;;;;;;6.83;2.55;;;;;;;;;;1704281;82;27302;-68
2023/10/04 11:15:11;;;;;;;20.15;13.80;;;;;;;;;;1706780;82;25640;-70
2023/10/04 11:17:38;;;;;;;9.08;3.62;;;;;;;;;;1705640;82;25860;-69
2023/10/04 11:20:09;;;;;;;11.55;3.83;;;;;;;;;;1700363;82;26080;-69
2023/10/04 11:22:38;;;;;;;10.28;4.35;;;;;;;;;;1705803;81;25204;-69
2023/10/04 11:25:06;;;;;;;54.42;42.60;;;;;;;;;;1703688;82;28599;-68
2023/10/04 11:27:33;;;;;;;12.23;4.37;;;;;;;;;;1693999;83;25501;-64
2023/10/04 11:29:59;;;;;;;6.03;2.75;;;;;;;;;;1694751;83;25426;-62
2023/10/04 11:32:28;;;;;;;4.15;2.72;;;;;;;;;;1709324;81;25736;-62
2023/10/04 11:34:59;;;;;;;10.63;3.40;;;;;;;;;;1704934;82;25800;-62
2023/10/04 11:37:28;;;;;;;7.50;2.92;;;;;;;;;;1705344;83;27402;-61
2023/10/04 11:39:55;;;;;;;10.93;2.95;;;;;;;;;;1709000;82;25824;-63
2023/10/04 11:42:23;;;;;;;7.70;2.85;;;;;;;;;;1703048;84;25779;-59
2023/10/04 11:44:50;;;;;;;9.18;2.90;;;;;;;;;;1704024;83;25558;-67
2023/10/04 11:47:27;;;;;;;7.70;2.60;;;;;;;;;;1704443;83;25816;-67
2023/10/04 11:49:58;;;;;;;6.87;2.75;;;;;;;;;;1700143;83;27451;-67
2023/10/04 11:52:32;;;;;;;5.60;2.55;;;;;;;;;;1710729;82;25460;-68
2023/10/04 11:55:00;;;;;;;6.22;2.77;;;;;;;;;;1713361;82;25212;-68
2023/10/04 11:57:28;;;;;;;8.23;3.15;;;;;;;;;;1695642;83;25908;-71
2023/10/04 12:00:00;;;;;;;9.05;2.52;;;;;;;;;;1709817;82;25805;-69
2023/10/04 12:02:27;;;;;;;8.63;2.87;;;;;;;;;;1703679;83;28048;-68
2023/10/04 12:04:53;;;;;;;3.60;2.35;;;;;;;;;;1708423;82;25894;-69
2023/10/04 12:07:20;;;;;;;4.62;2.45;;;;;;;;;;1703778;82;25544;-72
2023/10/04 12:09:46;;;;;;;4.10;2.37;;;;;;;;;;1701607;82;26294;-70
2023/10/04 12:12:16;;;;;;;5.95;2.55;;;;;;;;;;1710873;82;25895;-70
2023/10/04 12:14:40;;;;;;;7.70;2.67;;;;;;;;;;1682504;82;28074;-68
2023/10/04 12:17:08;;;;;;;8.00;2.35;;;;;;;;;;1697314;83;25494;-68
2023/10/04 12:19:36;;;;;;;8.10;2.65;;;;;;;;;;1690423;82;25504;-66
2023/10/04 12:22:12;;;;;;;8.28;2.98;;;;;;;;;;1696225;82;25993;-67
2023/10/04 12:24:41;;;;;;;4.90;2.60;;;;;;;;;;1694791;84;25622;-67
2023/10/04 12:27:09;;;;;;;8.25;2.85;;;;;;;;;;1695766;83;27939;-71
2023/10/04 12:29:37;;;;;;;5.08;2.62;;;;;;;;;;1693037;82;25637;-66
2023/10/04 12:32:06;;;;;;;7.70;2.72;;;;;;;;;;1701733;83;25585;-70
2023/10/04 12:34:33;;;;;;;;;;;;;;;;;;1704410;83;26350;-72
2023/10/04 12:37:03;;;;;;;4.35;2.75;;;;;;;;;;1704422;83;25462;-70
2023/10/04 12:39:30;;;;;;;9.73;3.37;;;;;;;;;;1708577;82;27395;-71
2023/10/04 12:41:59;;;;;;;6.30;3.02;;;;;;;;;;1710032;83;25859;-70
2023/10/04 12:44:26;;;;;;;6.95;3.02;;;;;;;;;;1706424;82;25506;-69
2023/10/04 12:46:53;;;;;;;7.73;3.07;;;;;;;;;;1685267;83;25620;-70
2023/10/04 12:49:19;;;;;;;7.60;2.87;;;;;;;;;;1694342;83;25869;-70
2023/10/04 12:51:48;;;;;;;7.65;3.27;;;;;;;;;;1708796;82;26996;-71
2023/10/04 12:54:16;;;;;;;5.10;3.20;;;;;;;;;;1706073;83;25477;-69
2023/10/04 12:56:50;;;;;;;5.37;2.72;;;;;;;;;;1716063;82;25889;-68
2023/10/04 12:59:15;;;;;;;5.00;3.02;;;;;;;;;;1707977;82;26059;-69
2023/10/04 13:01:40;;;;;;;8.23;3.33;;;;;;;;;;1709650;83;25612;-68
2023/10/04 13:04:07;;;;;;;5.83;2.70;;;;;;;;;;1704821;83;27660;-69
2023/10/04 13:06:34;;;;;;;6.90;2.83;;;;;;;;;;1713337;82;25872;-69
2023/10/04 13:09:02;;;;;;;6.90;2.87;;;;;;;;;;1710474;83;25573;-69
2023/10/04 13:11:30;;;;;;;5.42;2.80;;;;;;;;;;1700127;83;26847;-69
2023/10/04 13:13:56;;;;;;;6.90;3.17;;;;;;;;;;1694810;82;25813;-67
2023/10/04 13:16:24;;;;;;;5.15;2.87;;;;;;;;;;1707068;83;27469;-67
2023/10/04 13:18:51;;;;;;;6.75;3.08;;;;;;;;;;1702929;83;25685;-68
2023/10/04 13:21:18;;;;;;;6.05;3.02;;;;;;;;;;1705644;82;25908;-67
2023/10/04 13:23:44;;;;;;;7.35;2.98;;;;;;;;;;1707589;82;26911;-68
2023/10/04 13:26:12;;;;;;;5.42;2.85;;;;;;;;;;1705506;83;25485;-67
2023/10/04 13:28:39;;;;;;;6.87;3.08;;;;;;;;;;1703183;82;27245;-68
2023/10/04 13:31:05;;;;;;;6.17;3.10;;;;;;;;;;1706313;83;25481;-68
2023/10/04 13:33:32;;;;;;;6.70;3.40;;;;;;;;;;1697122;82;25963;-68
2023/10/04 13:35:59;;;;;;;7.15;3.55;;;;;;;;;;1690688;83;26202;-68
2023/10/04 13:38:24;;;;;;;8.33;3.25;;;;;;;;;;1706174;83;25586;-69
2023/10/04 13:40:50;;;;;;;3.42;2.55;;;;;;;;;;1707276;83;27398;-69
2023/10/04 13:43:17;;;;;;;5.55;2.75;;;;;;;;;;1693262;83;25905;-69
2023/10/04 13:45:47;;;;;;;7.87;3.27;;;;;;;;;;1685579;83;25638;-65
2023/10/04 13:48:14;;;;;;;9.43;2.70;;;;;;;;;;1694855;82;25850;-65
2023/10/04 13:50:42;;;;;;;5.70;2.58;;;;;;;;;;1695990;83;25707;-67
2023/10/04 13:53:11;;;;;;;9.25;6.25;;;;;;;;;;1690221;83;27772;-68
2023/10/04 13:55:39;;;;;;;9.45;4.03;;;;;;;;;;1696548;82;25880;-69
2023/10/04 13:58:12;;;;;;;26.97;16.20;;;;;;;;;;1696629;82;25724;-66
2023/10/04 14:00:44;;;;;;;6.85;3.62;;;;;;;;;;1708681;82;26078;-68
2023/10/04 14:03:09;;;;;;;9.80;3.33;;;;;;;;;;1713493;82;25924;-69
2023/10/04 14:05:38;;;;;;;8.65;2.83;;;;;;;;;;1703834;83;27630;-68
2023/10/04 14:08:09;;;;;;;7.95;2.25;;;;;;;;;;1705367;83;25878;-68
2023/10/04 14:10:37;;;;;;;7.47;2.35;;;;;;;;;;1702139;81;25826;-70
2023/10/04 14:13:05;;;;;;;7.97;2.92;;;;;;;;;;1704646;82;25792;-70
2023/10/04 14:15:34;;;;;;;5.55;2.45;;;;;;;;;;1702727;82;25794;-70
2023/10/04 14:18:00;;;;;;;5.65;2.45;;;;;;;;;;1708023;82;27511;-70
2023/10/04 14:20:28;;;;;;;9.88;3.05;;;;;;;;;;1704408;82;25225;-69
2023/10/04 14:22:58;;;;;;;7.22;2.67;;;;;;;;;;1714892;82;25520;-69
2023/10/04 14:25:28;;;;;;;5.10;2.65;;;;;;;;;;1704968;82;26275;-68
2023/10/04 14:27:53;;;;;;;4.35;2.02;;;;;;;;;;1705793;83;25127;-70
2023/10/04 14:30:23;;;;;;;7.55;2.45;;;;;;;;;;1710887;82;27187;-68
2023/10/04 14:32:47;;;;;;;5.45;2.42;;;;;;;;;;1710767;82;25795;-68
2023/10/04 14:35:15;;;;;;;5.95;2.50;;;;;;;;;;1702940;82;25672;-69
2023/10/04 14:37:41;;;;;;;4.12;2.12;;;;;;;;;;1709026;82;25948;-68
2023/10/04 14:40:14;;;;;;;6.10;2.52;;;;;;;;;;1696115;82;25466;-69
2023/10/04 14:42:39;;;;;;;8.25;2.37;;;;;;;;;;1691615;82;27468;-69
2023/10/04 14:45:08;;;;;;;5.30;2.30;;;;;;;;;;1685864;82;25481;-68
2023/10/04 14:47:34;;;;;;;;;;;;;;;;;;1697685;83;26167;-68
2023/10/04 14:50:04;;;;;;;4.50;2.17;;;;;;;;;;1697033;83;25995;-68
2023/10/04 14:52:34;;;;;;;7.70;2.65;;;;;;;;;;1693938;82;25483;-69
2023/10/04 14:55:01;;;;;;;9.05;2.77;;;;;;;;;;1698461;82;27665;-71
2023/10/04 14:57:28;;;;;;;4.47;2.60;;;;;;;;;;1708317;83;25679;-71
2023/10/04 15:17:32;;;;;;;7.78;3.98;;;;;;;;;;1751046;77;25833;-67
2023/10/04 15:19:58;;;;;;;;;;;;;;;;;;1723093;80;25553;-67
2023/10/04 15:22:30;;;;;;;104.50;84.70;;;;;;;;;;1726379;80;27747;-67